Time;durP1;ratioP1;P1;durP2;ratioP2;P2;SDS_P1;SDS_P2;PMS_P1;PMS_P2;Temp;Humidity;BMP_temperature;BMP_pressure;BME280_temperature;BME280_humidity;BME280_pressure;Samples;Min_cycle;Max_cycle;Signal;HPM_P1;HPM_P2
2023/12/05 00:01:40;;;;;;;1.40;1.30;;;;;;;-143.84;81.64;45207.13;5088861;28;20441;-62
2023/12/05 00:04:07;;;;;;;7.03;1.70;;;;;;;-143.84;81.30;45191.88;5088938;28;21000;-61
2023/12/05 00:06:37;;;;;;;3.17;1.30;;;;;;;-143.84;81.71;45220.44;5088915;28;20451;-61
2023/12/05 00:09:04;;;;;;;0.80;0.50;;;;;;;-143.84;82.19;45203.31;5089113;28;20463;-62
2023/12/05 00:11:31;;;;;;;0.80;0.50;;;;;;;-143.84;82.06;45209.03;5088939;28;20573;-60
2023/12/05 00:13:58;;;;;;;0.80;0.50;;;;;;;-143.84;81.87;45189.97;5088917;28;20434;-61
2023/12/05 00:16:27;;;;;;;0.80;0.50;;;;;;;-143.84;82.48;45210.94;5088543;28;20543;-61
2023/12/05 00:18:54;;;;;;;0.90;0.73;;;;;;;-143.84;82.13;45233.78;5088805;28;20452;-62
2023/12/05 00:21:21;;;;;;;0.80;0.70;;;;;;;-143.84;82.88;45220.44;5089095;28;20440;-61
2023/12/05 00:23:50;;;;;;;0.80;0.53;;;;;;;-143.84;82.95;45214.72;5088587;28;20956;-62
2023/12/05 00:26:17;;;;;;;0.90;0.80;;;;;;;-143.84;83.19;45220.44;5089105;28;20440;-61
2023/12/05 00:28:44;;;;;;;0.90;0.80;;;;;;;-143.84;83.01;45201.41;5088830;28;20935;-61
2023/12/05 00:31:11;;;;;;;4.40;2.07;;;;;;;-143.84;83.46;45228.06;5088488;28;20530;-62
2023/12/05 00:33:38;;;;;;;2.70;1.93;;;;;;;-143.84;83.18;45216.63;5088669;28;20464;-61
2023/12/05 00:36:06;;;;;;;0.80;0.70;;;;;;;-143.84;83.09;45210.94;5089008;28;20859;-61
2023/12/05 00:38:33;;;;;;;1.47;1.37;;;;;;;-143.84;83.82;45197.59;5088609;28;20447;-60
2023/12/05 00:41:02;;;;;;;2.17;1.97;;;;;;;-143.84;84.30;45216.63;5088680;28;20496;-61
2023/12/05 00:43:29;;;;;;;1.77;1.63;;;;;;;-143.84;83.95;45205.22;5088869;28;20453;-61
2023/12/05 00:45:56;;;;;;;1.10;1.00;;;;;;;-143.84;84.18;45193.78;5088884;28;20443;-61
2023/12/05 00:48:24;;;;;;;2.57;1.90;;;;;;;-143.84;84.57;45207.13;5088782;28;20511;-61
2023/12/05 00:50:51;;;;;;;1.20;1.10;;;;;;;-143.84;84.41;45199.50;5088803;28;20472;-62
2023/12/05 00:53:18;;;;;;;2.70;1.90;;;;;;;-143.84;84.38;45216.63;5088986;28;20443;-61
2023/12/05 00:55:45;;;;;;;0.80;0.50;;;;;;;-143.84;84.92;45209.03;5088795;28;20434;-62
2023/12/05 00:58:13;;;;;;;1.00;0.87;;;;;;;-143.84;84.61;45197.59;5089135;28;20938;-61
2023/12/05 01:00:41;;;;;;;1.30;1.20;;;;;;;-143.84;84.30;45212.84;5088502;28;20486;-60
2023/12/05 01:03:08;;;;;;;0.80;0.50;;;;;;;-143.84;85.11;45214.72;5092547;28;20792;-62
2023/12/05 01:05:35;;;;;;;0.80;0.50;;;;;;;-143.84;84.57;45210.94;5092212;28;20982;-61
2023/12/05 01:08:02;;;;;;;0.80;0.60;;;;;;;-143.84;85.03;45212.84;5092006;28;20435;-61
2023/12/05 01:10:29;;;;;;;0.93;0.83;;;;;;;-143.84;84.64;45212.84;5092148;28;20509;-61
2023/12/05 01:12:56;;;;;;;1.20;0.70;;;;;;;-143.84;85.08;45205.22;5092162;28;20438;-62
2023/12/05 01:15:25;;;;;;;1.30;1.17;;;;;;;-143.84;85.34;45228.06;5091940;28;20446;-62
2023/12/05 01:17:52;;;;;;;0.90;0.70;;;;;;;-143.84;85.09;45207.13;5092015;28;20443;-60
2023/12/05 01:20:20;;;;;;;0.80;0.60;;;;;;;-143.84;85.29;45209.03;5092039;28;20446;-61
2023/12/05 01:22:47;;;;;;;0.80;0.60;;;;;;;-143.84;85.37;45214.72;5091887;28;20458;-61
2023/12/05 01:25:14;;;;;;;1.90;1.80;;;;;;;-143.84;85.30;45188.06;5092541;28;20431;-61
2023/12/05 01:27:41;;;;;;;1.30;1.20;;;;;;;-143.84;85.54;45212.84;5091915;28;20510;-61
2023/12/05 01:30:09;;;;;;;1.10;0.90;;;;;;;-143.84;85.92;45218.53;5091964;28;21118;-61
2023/12/05 01:32:38;;;;;;;5.40;1.43;;;;;;;-143.84;85.82;45205.22;5092007;28;20446;-61
2023/12/05 01:35:06;;;;;;;1.40;1.23;;;;;;;-143.84;85.94;45201.41;5092114;28;20447;-61
2023/12/05 01:37:33;;;;;;;1.43;1.33;;;;;;;-143.84;86.48;45203.31;5091843;28;20471;-61
2023/12/05 01:40:00;;;;;;;1.17;0.80;;;;;;;-143.84;86.33;45188.06;5091268;28;20443;-61
2023/12/05 01:42:27;;;;;;;1.40;0.80;;;;;;;-143.84;86.62;45220.44;5091588;28;20449;-61
2023/12/05 01:44:54;;;;;;;1.60;1.50;;;;;;;-143.84;86.82;45207.13;5091537;28;21013;-61
2023/12/05 01:47:21;;;;;;;1.03;0.93;;;;;;;-143.84;86.77;45207.13;5091210;28;20500;-62
2023/12/05 01:49:50;;;;;;;1.50;1.40;;;;;;;-143.84;86.87;45210.94;5091248;28;20973;-61
2023/12/05 01:52:17;;;;;;;1.17;1.07;;;;;;;-143.84;86.95;45207.13;5091629;28;20444;-60
2023/12/05 01:54:45;;;;;;;0.80;0.50;;;;;;;-143.84;86.99;45231.88;5091532;28;20442;-62
2023/12/05 01:57:12;;;;;;;2.30;2.20;;;;;;;-143.84;87.56;45189.97;5091207;28;20436;-61
2023/12/05 01:59:40;;;;;;;0.90;0.70;;;;;;;-143.84;87.30;45167.13;5091270;28;20448;-60
2023/12/05 02:02:08;;;;;;;0.80;0.40;;;;;;;-143.84;87.55;45222.34;5090988;28;20504;-62
2023/12/05 02:04:36;;;;;;;1.33;1.13;;;;;;;-143.84;87.53;45218.53;5090897;28;20806;-61
2023/12/05 02:07:05;;;;;;;1.07;0.90;;;;;;;-143.84;88.27;45195.69;5091281;28;20886;-62
2023/12/05 02:09:33;;;;;;;0.80;0.70;;;;;;;-143.84;88.05;45220.44;5091496;28;20458;-61
2023/12/05 02:12:00;;;;;;;0.80;0.50;;;;;;;-143.84;88.26;45209.03;5090909;28;20562;-61
2023/12/05 02:14:27;;;;;;;0.80;0.50;;;;;;;-143.84;88.31;45189.97;5090017;28;20447;-61
2023/12/05 02:17:05;;;;;;;0.90;0.77;;;;;;;-143.84;88.35;45216.63;5090666;28;20486;-61
2023/12/05 02:19:45;;;;;;;3.93;2.27;;;;;;;-143.84;88.71;45220.44;5090634;28;20933;-61
2023/12/05 02:22:40;;;;;;;1.60;0.83;;;;;;;-143.84;89.04;45224.25;5091280;28;20452;-61
2023/12/05 02:25:17;;;;;;;1.23;1.13;;;;;;;-143.84;88.96;45224.25;5090752;28;20447;-60
2023/12/05 02:27:47;;;;;;;1.20;1.00;;;;;;;-143.84;89.18;45210.94;5090606;28;20554;-60
2023/12/05 02:30:16;;;;;;;1.73;1.60;;;;;;;-143.84;89.24;45191.88;5090372;28;21346;-61
2023/12/05 02:32:44;;;;;;;3.43;0.80;;;;;;;-143.84;89.16;45207.13;5090300;28;20431;-61
2023/12/05 02:35:12;;;;;;;0.90;0.73;;;;;;;-143.84;89.47;45205.22;5090282;28;20933;-61
2023/12/05 02:37:48;;;;;;;1.00;0.90;;;;;;;-143.84;89.88;45205.22;5090328;28;20447;-61
2023/12/05 02:40:22;;;;;;;1.73;0.83;;;;;;;-143.84;89.73;45212.84;5090126;28;20522;-61
2023/12/05 02:42:53;;;;;;;0.80;0.50;;;;;;;-143.84;90.09;45210.94;5090627;28;20439;-62
2023/12/05 02:45:22;;;;;;;1.10;1.00;;;;;;;-143.84;89.84;45201.41;5090376;28;20447;-61
2023/12/05 02:47:50;;;;;;;0.80;0.50;;;;;;;-143.84;90.02;45209.03;5090051;28;20450;-60
2023/12/05 02:50:18;;;;;;;2.97;1.67;;;;;;;-143.84;89.75;45209.03;5090047;28;20527;-61
2023/12/05 02:52:46;;;;;;;1.87;1.10;;;;;;;-143.84;90.31;45195.69;5089932;28;20948;-61
2023/12/05 02:55:13;;;;;;;0.80;0.50;;;;;;;-143.84;90.07;45216.63;5090124;28;20435;-61
2023/12/05 02:57:40;;;;;;;0.80;0.40;;;;;;;-143.84;89.92;45216.63;5090219;28;20438;-60
2023/12/05 03:00:10;;;;;;;0.80;0.60;;;;;;;-143.84;90.60;45189.97;5090203;28;20443;-61
2023/12/05 03:02:37;;;;;;;2.10;1.33;;;;;;;-143.84;89.97;45199.50;5089618;28;20507;-61
2023/12/05 03:05:05;;;;;;;0.97;0.87;;;;;;;-143.84;89.95;45210.94;5089928;28;20450;-61
2023/12/05 03:07:32;;;;;;;0.80;0.50;;;;;;;-143.84;90.35;45205.22;5089783;28;20443;-61
2023/12/05 03:09:59;;;;;;;2.13;1.07;;;;;;;-143.84;90.08;45220.44;5090002;28;20496;-61
2023/12/05 03:12:26;;;;;;;0.80;0.50;;;;;;;-143.84;89.95;45191.88;5089532;28;20489;-61
2023/12/05 03:14:53;;;;;;;0.80;0.50;;;;;;;-143.84;89.76;45220.44;5089680;28;20960;-62
2023/12/05 03:17:22;;;;;;;0.80;0.50;;;;;;;-143.84;90.11;45207.13;5089445;28;20491;-61
2023/12/05 03:19:49;;;;;;;0.80;0.50;;;;;;;-143.84;89.70;45203.31;5089553;28;20440;-62
2023/12/05 03:22:16;;;;;;;0.80;0.40;;;;;;;-143.84;89.61;45201.41;5089340;28;20450;-61
2023/12/05 03:24:43;;;;;;;1.00;0.90;;;;;;;-143.84;90.06;45184.25;5089446;28;20447;-61
2023/12/05 03:27:10;;;;;;;0.90;0.80;;;;;;;-143.84;89.74;45210.94;5089548;28;20766;-61
2023/12/05 03:29:37;;;;;;;1.43;0.63;;;;;;;-143.84;89.74;45197.59;5089009;28;20450;-61
2023/12/05 03:32:05;;;;;;;1.23;1.13;;;;;;;-143.84;89.33;45195.69;5088372;28;20483;-61
2023/12/05 03:34:34;;;;;;;1.10;0.60;;;;;;;-143.84;89.90;45205.22;5088828;28;21032;-61
2023/12/05 03:37:01;;;;;;;0.80;0.50;;;;;;;-143.84;89.85;45220.44;5088827;28;20524;-61
2023/12/05 03:39:28;;;;;;;0.87;0.87;;;;;;;-143.84;89.72;45193.78;5088594;28;20430;-62
2023/12/05 03:41:55;;;;;;;1.37;1.27;;;;;;;-143.84;89.84;45201.41;5088767;28;20447;-62
2023/12/05 03:44:23;;;;;;;0.80;0.40;;;;;;;-143.84;89.94;45224.25;5089169;28;20474;-61
2023/12/05 03:46:50;;;;;;;1.00;0.80;;;;;;;-143.84;90.11;45224.25;5089150;28;20492;-60
2023/12/05 03:49:17;;;;;;;0.90;0.57;;;;;;;-143.84;89.55;45214.72;5089241;28;20500;-61
2023/12/05 03:51:45;;;;;;;1.83;1.73;;;;;;;-143.84;90.38;45188.06;5089010;28;20482;-60
2023/12/05 03:54:13;;;;;;;0.90;0.60;;;;;;;-143.84;90.32;45193.78;5089196;28;20884;-61
2023/12/05 03:56:40;;;;;;;1.77;0.80;;;;;;;-143.84;90.07;45205.22;5089204;28;20436;-61
2023/12/05 03:59:07;;;;;;;0.80;0.60;;;;;;;-143.84;89.96;45203.31;5089172;28;20439;-62
2023/12/05 04:01:34;;;;;;;0.80;0.40;;;;;;;-143.84;89.86;45188.06;5089098;28;20435;-60
2023/12/05 04:04:01;;;;;;;0.80;0.53;;;;;;;-143.84;89.79;45197.59;5089025;28;21153;-61
2023/12/05 04:06:28;;;;;;;0.80;0.63;;;;;;;-143.84;90.08;45209.03;5089271;28;20794;-63
2023/12/05 04:08:57;;;;;;;1.10;0.90;;;;;;;-143.84;90.18;45209.03;5089265;28;20435;-63
2023/12/05 04:11:30;;;;;;;1.10;0.80;;;;;;;-143.84;90.44;45205.22;5089033;28;20479;-63
2023/12/05 04:13:58;;;;;;;1.10;1.00;;;;;;;-143.84;90.92;45197.59;5088815;28;20432;-63
2023/12/05 04:16:25;;;;;;;1.17;0.90;;;;;;;-143.84;90.41;45209.03;5088623;28;20487;-62
2023/12/05 04:18:52;;;;;;;0.80;0.57;;;;;;;-143.84;90.44;45195.69;5088970;28;20438;-63
2023/12/05 04:21:20;;;;;;;0.90;0.70;;;;;;;-143.84;90.86;45201.41;5088687;28;20443;-62
2023/12/05 04:23:48;;;;;;;0.90;0.77;;;;;;;-143.84;91.07;45203.31;5088876;28;20439;-60
2023/12/05 04:26:17;;;;;;;0.80;0.60;;;;;;;-143.84;91.34;45216.63;5088846;28;20455;-61
2023/12/05 04:28:45;;;;;;;0.80;0.40;;;;;;;-143.84;90.97;45197.59;5088538;28;20454;-61
2023/12/05 04:31:12;;;;;;;2.40;0.60;;;;;;;-143.84;91.21;45195.69;5088526;28;20540;-61
2023/12/05 04:33:40;;;;;;;1.30;1.20;;;;;;;-143.84;90.94;45180.47;5088735;28;20862;-60
2023/12/05 04:36:07;;;;;;;0.80;0.50;;;;;;;-143.84;90.79;45226.16;5089307;28;20439;-63
2023/12/05 04:38:34;;;;;;;1.20;1.10;;;;;;;-143.84;90.74;45180.47;5092687;28;20810;-62
2023/12/05 04:41:01;;;;;;;1.30;0.90;;;;;;;-143.84;90.82;45216.63;5092459;28;21249;-63
2023/12/05 04:43:30;;;;;;;0.90;0.77;;;;;;;-143.84;90.99;45174.75;5079445;28;20460;-63
2023/12/05 04:45:57;;;;;;;0.90;0.80;;;;;;;-143.84;90.18;45189.97;5071696;28;20447;-61
2023/12/05 04:48:24;;;;;;;0.80;0.40;;;;;;;-143.84;89.71;45184.25;5072415;28;21083;-61
2023/12/05 04:50:52;;;;;;;0.80;0.60;;;;;;;-143.84;88.45;45176.66;5080022;28;20452;-61
2023/12/05 04:53:19;;;;;;;0.80;0.50;;;;;;;-143.84;88.17;45207.13;5092524;28;20471;-61
2023/12/05 04:55:46;;;;;;;1.27;0.70;;;;;;;-143.84;87.97;45203.31;5092416;28;20431;-62
2023/12/05 04:58:13;;;;;;;0.80;0.40;;;;;;;-143.84;87.95;45193.78;5091855;28;20434;-61
2023/12/05 05:00:42;;;;;;;0.80;0.40;;;;;;;-143.84;86.89;45212.84;5092191;28;20787;-60
2023/12/05 05:03:09;;;;;;;1.10;0.70;;;;;;;-143.84;86.56;45203.31;5092288;28;20526;-61
2023/12/05 05:05:36;;;;;;;0.80;0.50;;;;;;;-143.84;87.19;45193.78;5092109;28;20442;-61
2023/12/05 05:08:04;;;;;;;1.57;1.47;;;;;;;-143.84;87.30;45195.69;5091978;28;20507;-61
2023/12/05 05:10:31;;;;;;;0.97;0.90;;;;;;;-143.84;86.56;45188.06;5092035;28;20447;-62
2023/12/05 05:12:58;;;;;;;0.80;0.40;;;;;;;-143.84;85.79;45209.03;5092067;28;20877;-60
2023/12/05 05:15:25;;;;;;;0.80;0.50;;;;;;;-143.84;86.20;45184.25;5091805;28;20450;-62
2023/12/05 05:17:53;;;;;;;1.37;1.27;;;;;;;-143.84;85.96;45178.56;5091775;28;20442;-62
2023/12/05 05:20:21;;;;;;;0.80;0.40;;;;;;;-143.84;86.05;45222.34;5092313;28;21349;-61
2023/12/05 05:22:48;;;;;;;1.40;1.00;;;;;;;-143.84;84.95;45214.72;5092101;28;20471;-61
2023/12/05 05:25:16;;;;;;;1.97;1.00;;;;;;;-143.84;84.87;45205.22;5092006;28;20455;-61
2023/12/05 05:27:43;;;;;;;0.80;0.50;;;;;;;-143.84;84.64;45186.16;5091983;28;20530;-60
2023/12/05 05:30:12;;;;;;;2.87;0.80;;;;;;;-143.84;84.67;45210.94;5091656;28;20440;-60
2023/12/05 05:32:39;;;;;;;0.93;0.83;;;;;;;-143.84;84.22;45224.25;5091822;28;20479;-62
2023/12/05 05:35:08;;;;;;;0.80;0.50;;;;;;;-143.84;84.21;45189.97;5092020;28;20435;-63
2023/12/05 05:37:35;;;;;;;0.80;0.50;;;;;;;-143.84;83.84;45184.25;5091852;28;20946;-63
2023/12/05 05:40:06;;;;;;;0.80;0.47;;;;;;;-143.84;84.70;45184.25;5091408;28;20446;-63
2023/12/05 05:42:33;;;;;;;2.70;0.63;;;;;;;-143.84;84.50;45220.44;5091296;28;20505;-60
2023/12/05 05:45:00;;;;;;;1.70;1.33;;;;;;;-143.84;84.61;45180.47;5091453;28;20435;-62
2023/12/05 05:47:28;;;;;;;0.80;0.50;;;;;;;-143.84;84.62;45201.41;5084120;28;20488;-61
2023/12/05 05:49:57;;;;;;;1.27;1.17;;;;;;;-143.84;84.12;45203.31;5071193;28;20448;-61
2023/12/05 05:52:25;;;;;;;0.90;0.80;;;;;;;-143.84;84.18;45205.22;5071058;28;20480;-61
2023/12/05 05:54:53;;;;;;;1.17;1.07;;;;;;;-143.84;83.89;45271.88;5070980;28;20456;-61
2023/12/05 05:57:20;;;;;;;0.80;0.50;;;;;;;-143.84;83.86;45199.50;5070968;28;20779;-61
2023/12/05 05:59:47;;;;;;;0.80;0.40;;;;;;;-143.84;83.21;45226.16;5070874;28;20456;-61
2023/12/05 06:02:16;;;;;;;1.63;0.70;;;;;;;-143.84;83.38;45189.97;5071144;28;20448;-61
2023/12/05 06:04:43;;;;;;;0.80;0.50;;;;;;;-143.84;82.75;45189.97;5070973;28;20458;-61
2023/12/05 06:07:10;;;;;;;0.80;0.60;;;;;;;-143.84;82.14;45193.78;5070810;28;20445;-61
2023/12/05 06:09:39;;;;;;;0.80;0.40;;;;;;;-143.84;82.27;45209.03;5070736;28;20443;-61
2023/12/05 06:12:07;;;;;;;0.80;0.50;;;;;;;-143.84;82.07;45178.56;5070543;28;20472;-61
2023/12/05 06:14:35;;;;;;;0.90;0.60;;;;;;;-143.84;82.66;45203.31;5070624;28;20451;-61
2023/12/05 06:17:02;;;;;;;1.20;1.10;;;;;;;-143.84;82.61;45199.50;5070382;28;20595;-61
2023/12/05 06:19:29;;;;;;;0.80;0.60;;;;;;;-143.84;82.07;45193.78;5070910;28;21401;-61
2023/12/05 06:21:56;;;;;;;0.90;0.60;;;;;;;-143.84;81.51;45212.84;5070802;28;20428;-61
2023/12/05 06:24:23;;;;;;;0.80;0.40;;;;;;;-143.84;81.83;45195.69;5070737;28;20456;-61
2023/12/05 06:26:52;;;;;;;0.80;0.40;;;;;;;-143.84;81.08;45220.44;5070482;28;20447;-61
2023/12/05 06:29:19;;;;;;;0.80;0.50;;;;;;;-143.84;81.25;45199.50;5070538;28;20460;-61
2023/12/05 06:31:46;;;;;;;0.80;0.47;;;;;;;-143.84;81.37;45172.84;5070215;28;20500;-61
2023/12/05 06:34:14;;;;;;;0.80;0.60;;;;;;;-143.84;80.96;45197.59;5070398;28;20983;-61
2023/12/05 06:36:42;;;;;;;0.80;0.40;;;;;;;-143.84;81.16;45216.63;5070200;28;20937;-61
2023/12/05 06:39:09;;;;;;;1.17;0.70;;;;;;;-143.84;81.45;45188.06;5070054;28;20443;-61
2023/12/05 06:41:36;;;;;;;0.80;0.50;;;;;;;-143.84;80.83;45203.31;5070048;28;20497;-62
2023/12/05 06:44:05;;;;;;;0.83;0.67;;;;;;;-143.84;80.96;45186.16;5069973;28;21238;-61
2023/12/05 06:46:32;;;;;;;1.37;1.27;;;;;;;-143.84;80.84;45193.78;5069976;28;20456;-61
2023/12/05 06:49:00;;;;;;;0.80;0.50;;;;;;;-143.84;80.97;45195.69;5070222;28;20459;-61
2023/12/05 06:51:27;;;;;;;0.90;0.70;;;;;;;-143.84;80.97;45222.34;5069781;28;20445;-62
2023/12/05 06:53:54;;;;;;;0.80;0.40;;;;;;;-143.84;79.93;45176.66;5070002;28;20800;-61
2023/12/05 06:56:21;;;;;;;0.80;0.50;;;;;;;-143.84;79.82;45218.53;5069710;28;20480;-61
2023/12/05 06:58:48;;;;;;;0.80;0.40;;;;;;;-143.84;80.05;45172.84;5069400;28;20447;-61
2023/12/05 07:01:18;;;;;;;0.90;0.77;;;;;;;-143.84;80.01;45216.63;5069830;28;20950;-61
2023/12/05 07:03:46;;;;;;;0.80;0.70;;;;;;;-143.84;79.92;45201.41;5069945;28;20448;-61
2023/12/05 07:06:13;;;;;;;0.80;0.70;;;;;;;-143.84;79.21;45209.03;5069802;28;20445;-61
2023/12/05 07:08:41;;;;;;;0.80;0.40;;;;;;;-143.84;79.31;45178.56;5069685;28;20448;-61
2023/12/05 07:11:08;;;;;;;0.80;0.50;;;;;;;-143.84;79.17;45191.88;5069629;28;20441;-62
2023/12/05 07:13:35;;;;;;;1.40;1.07;;;;;;;-143.84;79.08;45203.31;5069326;28;21012;-61
2023/12/05 07:16:03;;;;;;;0.80;0.40;;;;;;;-143.84;78.85;45207.13;5069097;28;20480;-62
2023/12/05 07:18:32;;;;;;;0.80;0.40;;;;;;;-143.84;79.70;45209.03;5069485;28;20977;-61
2023/12/05 07:20:59;;;;;;;2.97;1.47;;;;;;;-143.84;80.10;45193.78;5069562;28;20453;-61
2023/12/05 07:23:26;;;;;;;0.80;0.60;;;;;;;-143.84;80.76;45193.78;5069138;28;20441;-61
2023/12/05 07:25:56;;;;;;;0.80;0.50;;;;;;;-143.84;80.87;45203.31;5069345;28;21223;-61
2023/12/05 07:28:23;;;;;;;0.80;0.60;;;;;;;-143.84;80.90;45167.13;5069243;28;20526;-60
2023/12/05 07:30:51;;;;;;;0.80;0.70;;;;;;;-143.84;80.41;45189.97;5069526;28;20548;-61
2023/12/05 07:33:18;;;;;;;0.80;0.50;;;;;;;-143.84;80.43;45189.97;5069172;28;21054;-61
2023/12/05 07:35:47;;;;;;;0.80;0.50;;;;;;;-143.84;79.88;45201.41;5069274;28;20441;-62
2023/12/05 07:38:15;;;;;;;1.77;0.70;;;;;;;-143.84;79.52;45197.59;5069269;28;20445;-61
2023/12/05 07:40:42;;;;;;;0.80;0.40;;;;;;;-143.84;79.78;45172.84;5069289;28;20472;-61
2023/12/05 07:43:09;;;;;;;1.53;0.77;;;;;;;-143.84;79.80;45169.03;5069485;28;20459;-61
2023/12/05 07:45:36;;;;;;;0.90;0.60;;;;;;;-143.84;79.30;45191.88;5069388;28;20487;-61
2023/12/05 07:48:04;;;;;;;0.90;0.70;;;;;;;-143.84;79.02;45197.59;5069110;28;20433;-60
2023/12/05 07:50:31;;;;;;;0.80;0.50;;;;;;;-143.84;79.08;45172.84;5068927;28;20436;-61
2023/12/05 07:52:59;;;;;;;0.97;0.63;;;;;;;-143.84;78.91;45207.13;5068626;28;20925;-61
2023/12/05 07:55:26;;;;;;;1.07;0.97;;;;;;;-143.84;78.96;45186.16;5068991;28;20437;-61
2023/12/05 07:57:53;;;;;;;0.80;0.40;;;;;;;-143.84;79.15;45199.50;5069014;28;20945;-61
2023/12/05 08:00:21;;;;;;;1.27;1.17;;;;;;;-143.84;79.08;45170.94;5068693;28;20432;-61
2023/12/05 08:02:48;;;;;;;0.90;0.70;;;;;;;-143.84;78.45;45178.56;5068876;28;20460;-61
2023/12/05 08:05:15;;;;;;;1.00;0.90;;;;;;;-143.84;78.55;45191.88;5068836;28;20855;-62
2023/12/05 08:07:42;;;;;;;1.07;0.90;;;;;;;-143.84;78.27;45186.16;5067589;28;20437;-62
2023/12/05 08:10:11;;;;;;;1.67;0.63;;;;;;;-143.84;78.11;45199.50;5068027;28;20502;-61
2023/12/05 08:12:39;;;;;;;0.80;0.70;;;;;;;-143.84;78.28;45178.56;5071101;28;20476;-61
2023/12/05 08:15:07;;;;;;;0.80;0.40;;;;;;;-143.84;78.08;45195.69;5072142;28;20522;-62
2023/12/05 08:17:35;;;;;;;0.80;0.50;;;;;;;-143.84;77.44;45180.47;5071953;28;20626;-62
2023/12/05 08:20:02;;;;;;;0.80;0.63;;;;;;;-143.84;77.11;45178.56;5071937;28;20451;-62
2023/12/05 08:22:30;;;;;;;2.07;1.07;;;;;;;-143.84;76.73;45184.25;5072145;28;20441;-60
2023/12/05 08:24:57;;;;;;;0.83;0.57;;;;;;;-143.84;77.07;45210.94;5072116;28;20441;-61
2023/12/05 08:27:25;;;;;;;0.80;0.50;;;;;;;-143.84;76.50;45178.56;5072782;28;20493;-61
2023/12/05 08:29:53;;;;;;;0.90;0.73;;;;;;;-143.84;76.08;45209.03;5072420;28;20457;-62
2023/12/05 08:32:20;;;;;;;1.00;0.70;;;;;;;-143.84;76.26;45216.63;5072312;28;20480;-62
2023/12/05 08:34:47;;;;;;;0.80;0.40;;;;;;;-143.84;76.73;45188.06;5072224;28;20436;-60
2023/12/05 08:37:14;;;;;;;0.80;0.53;;;;;;;-143.84;75.85;45214.72;5072502;28;20506;-61
2023/12/05 08:39:41;;;;;;;0.80;0.53;;;;;;;-143.84;75.75;45222.34;5072632;28;20494;-60
2023/12/05 08:42:09;;;;;;;0.80;0.40;;;;;;;-143.84;75.14;45188.06;5072468;28;20444;-62
2023/12/05 08:44:37;;;;;;;0.80;0.50;;;;;;;-143.84;75.13;45188.06;5072361;28;20441;-61
2023/12/05 08:47:05;;;;;;;0.90;0.60;;;;;;;-143.84;75.69;45197.59;5072501;28;20452;-60
2023/12/05 08:49:32;;;;;;;2.90;1.00;;;;;;;-143.84;75.43;45188.06;5072355;28;20859;-60
2023/12/05 08:51:59;;;;;;;1.10;0.80;;;;;;;-143.84;75.54;45151.91;5072158;28;20498;-60
2023/12/05 08:54:26;;;;;;;1.63;0.97;;;;;;;-143.84;75.82;45186.16;5071933;28;20878;-61
2023/12/05 08:56:53;;;;;;;1.53;1.00;;;;;;;-143.84;75.40;45161.41;5071877;28;20506;-61
2023/12/05 08:59:20;;;;;;;0.90;0.73;;;;;;;-143.84;74.04;45180.47;5072079;28;20432;-61
2023/12/05 09:01:50;;;;;;;1.30;0.80;;;;;;;-143.84;73.91;45193.78;5071834;28;21008;-61
2023/12/05 09:04:17;;;;;;;0.80;0.40;;;;;;;-143.84;74.31;45161.41;5071966;28;20459;-62
2023/12/05 09:06:44;;;;;;;0.80;0.50;;;;;;;-143.84;74.45;45163.31;5071644;28;20942;-61
2023/12/05 09:09:11;;;;;;;1.00;0.60;;;;;;;-143.84;74.98;45170.94;5072005;28;20501;-63
2023/12/05 09:11:39;;;;;;;0.80;0.57;;;;;;;-143.84;75.34;45159.50;5071674;28;20491;-63
2023/12/05 09:14:06;;;;;;;2.70;1.23;;;;;;;-143.84;75.24;45201.41;5071532;28;21005;-62
2023/12/05 09:16:33;;;;;;;1.00;0.83;;;;;;;-143.84;75.08;45205.22;5071442;28;20925;-63
2023/12/05 09:19:02;;;;;;;1.83;0.70;;;;;;;-143.84;74.68;45167.13;5071722;28;20931;-62
2023/12/05 09:21:29;;;;;;;1.20;1.10;;;;;;;-143.84;73.59;45189.97;5071802;28;21438;-62
2023/12/05 09:23:56;;;;;;;1.10;0.80;;;;;;;-143.84;73.73;45195.69;5071370;28;20448;-61
2023/12/05 09:26:23;;;;;;;0.80;0.40;;;;;;;-143.84;74.48;45169.03;5071606;28;20514;-60
2023/12/05 09:28:50;;;;;;;0.83;0.60;;;;;;;-143.84;75.12;45189.97;5071379;28;20642;-61
2023/12/05 09:31:18;;;;;;;0.90;0.60;;;;;;;-143.84;75.39;45178.56;5071758;28;20433;-61
2023/12/05 09:33:45;;;;;;;0.80;0.40;;;;;;;-143.84;76.14;45195.69;5071432;28;20472;-61
2023/12/05 09:36:13;;;;;;;0.80;0.50;;;;;;;-143.84;76.52;45201.41;5071671;28;20510;-57
2023/12/05 09:38:40;;;;;;;0.80;0.50;;;;;;;-143.84;76.51;45180.47;5071037;28;20445;-56
2023/12/05 09:41:10;;;;;;;0.80;0.47;;;;;;;-143.84;76.38;45184.25;5070939;28;21119;-56
2023/12/05 09:43:40;;;;;;;3.00;0.70;;;;;;;-143.84;75.92;45176.66;5070866;28;20436;-56
2023/12/05 09:46:08;;;;;;;2.33;0.63;;;;;;;-143.84;75.92;45165.22;5070679;28;20452;-56
2023/12/05 09:48:41;;;;;;;1.00;0.60;;;;;;;-143.84;76.10;45165.22;5070616;28;20455;-57
2023/12/05 09:51:09;;;;;;;0.90;0.70;;;;;;;-143.84;76.31;45207.13;5070837;28;20445;-56
2023/12/05 09:53:38;;;;;;;1.47;1.37;;;;;;;-143.84;76.29;45193.78;5070551;28;20491;-57
2023/12/05 09:56:06;;;;;;;1.67;0.77;;;;;;;-143.84;76.70;45180.47;5070551;28;20441;-56
2023/12/05 09:58:33;;;;;;;1.10;1.00;;;;;;;-143.84;77.65;45182.38;5070773;28;20493;-57
2023/12/05 10:01:02;;;;;;;0.80;0.43;;;;;;;-143.84;78.56;45193.78;5070625;28;20449;-56
2023/12/05 10:03:35;;;;;;;0.80;0.60;;;;;;;-143.84;79.10;45191.88;5070505;28;20590;-56
2023/12/05 10:06:06;;;;;;;0.80;0.60;;;;;;;-143.84;79.71;45203.31;5070568;28;20522;-56
2023/12/05 10:08:34;;;;;;;0.80;0.47;;;;;;;-143.84;80.40;45189.97;5070489;28;20946;-56
2023/12/05 10:11:04;;;;;;;1.00;0.80;;;;;;;-143.84;80.76;45178.56;5070729;28;20440;-56
2023/12/05 10:13:32;;;;;;;0.80;0.50;;;;;;;-143.84;81.58;45170.94;5070509;28;20476;-56
2023/12/05 10:16:00;;;;;;;1.50;1.20;;;;;;;-143.84;81.79;45193.78;5070374;28;20480;-56
2023/12/05 10:18:29;;;;;;;1.10;0.93;;;;;;;-143.84;82.00;45174.75;5070144;28;20469;-57
2023/12/05 10:20:56;;;;;;;1.00;0.60;;;;;;;-143.84;82.14;45193.78;5070375;28;20865;-57
2023/12/05 10:23:23;;;;;;;1.83;0.93;;;;;;;-143.84;82.08;45197.59;5070113;28;20449;-56
2023/12/05 10:25:51;;;;;;;1.77;1.03;;;;;;;-143.84;81.90;45176.66;5070259;28;20444;-56
2023/12/05 10:28:20;;;;;;;0.80;0.40;;;;;;;-143.84;82.03;45159.50;5070131;28;20441;-56
2023/12/05 10:30:47;;;;;;;0.80;0.70;;;;;;;-143.84;81.83;45191.88;5070312;28;20444;-56
2023/12/05 10:33:16;;;;;;;0.87;0.57;;;;;;;-143.84;80.87;45205.22;5069887;28;21220;-57
2023/12/05 10:35:45;;;;;;;0.80;0.50;;;;;;;-143.84;80.55;45209.03;5069559;28;20551;-56
2023/12/05 10:38:13;;;;;;;1.03;0.93;;;;;;;-143.84;80.35;45186.16;5069762;28;20437;-56
2023/12/05 10:40:54;;;;;;;0.80;0.50;;;;;;;-143.84;79.80;45197.59;5069887;28;20448;-57
2023/12/05 10:43:24;;;;;;;1.27;1.17;;;;;;;-143.84;78.71;45174.75;5069821;28;21163;-56
2023/12/05 10:45:52;;;;;;;0.80;0.50;;;;;;;-143.84;79.26;45178.56;5069854;28;20504;-56
2023/12/05 10:48:20;;;;;;;0.90;0.73;;;;;;;-143.84;79.58;45195.69;5069530;28;20432;-56
2023/12/05 10:50:48;;;;;;;0.80;0.50;;;;;;;-143.84;79.37;45186.16;5069626;28;20437;-56
2023/12/05 10:53:16;;;;;;;1.00;0.90;;;;;;;-143.84;79.11;45188.06;5069505;28;20480;-56
2023/12/05 10:55:43;;;;;;;0.90;0.70;;;;;;;-143.84;79.28;45218.53;5069532;28;20449;-56
2023/12/05 10:58:11;;;;;;;0.80;0.60;;;;;;;-143.84;79.22;45210.94;5069485;28;20441;-57
2023/12/05 11:00:40;;;;;;;1.00;0.90;;;;;;;-143.84;79.12;45186.16;5069328;28;20548;-57
2023/12/05 11:03:08;;;;;;;0.80;0.40;;;;;;;-143.84;79.00;45193.78;5069476;28;20498;-56
2023/12/05 11:05:36;;;;;;;0.80;0.40;;;;;;;-143.84;79.39;45195.69;5069440;28;21155;-56
2023/12/05 11:08:04;;;;;;;0.90;0.80;;;;;;;-143.84;79.07;45193.78;5069260;28;20451;-56
2023/12/05 11:10:31;;;;;;;0.80;0.50;;;;;;;-143.84;78.85;45195.69;5069442;28;20453;-56
2023/12/05 11:13:02;;;;;;;0.80;0.50;;;;;;;-143.84;78.88;45188.06;5069208;28;20440;-56
2023/12/05 11:15:33;;;;;;;0.80;0.70;;;;;;;-143.84;78.83;45199.50;5069013;28;20452;-56
2023/12/05 11:18:10;;;;;;;0.80;0.60;;;;;;;-143.84;78.74;45180.47;5069474;28;20441;-56
2023/12/05 11:21:05;;;;;;;0.80;0.50;;;;;;;-143.84;78.91;45191.88;5069122;28;21274;-57